Time;durP1;ratioP1;P1;durP2;ratioP2;P2;SDS_P1;SDS_P2;PMS_P1;PMS_P2;Temp;Humidity;BMP_temperature;BMP_pressure;BME280_temperature;BME280_humidity;BME280_pressure;Samples;Min_cycle;Max_cycle;Signal;HPM_P1;HPM_P2
2022/07/15 00:02:07;;;;;;;4.35;1.80;;;;;;;;;;4932355;28;20360;-61
2022/07/15 00:04:33;;;;;;;2.55;1.67;;;;;;;;;;4932238;28;20418;-61
2022/07/15 00:06:59;;;;;;;3.90;2.05;;;;;;;;;;4932402;28;20538;-62
2022/07/15 00:10:13;;;;;;;3.60;2.15;;;;;;;;;;4932285;28;20512;-61
2022/07/15 00:12:10;;;;;;;2.75;1.65;;;;;;;;;;4932482;28;20357;-61
2022/07/15 00:14:36;;;;;;;3.63;1.98;;;;;;;;;;4932216;28;20334;-61
2022/07/15 00:17:01;;;;;;;1.98;1.70;;;;;;;;;;4933064;28;20314;-62
2022/07/15 00:19:27;;;;;;;2.25;1.70;;;;;;;;;;4932285;28;20450;-61
2022/07/15 00:21:53;;;;;;;2.83;1.77;;;;;;;;;;4932031;28;20329;-62
2022/07/15 00:24:18;;;;;;;2.47;1.60;;;;;;;;;;4932525;28;20096;-61
2022/07/15 00:26:43;;;;;;;5.50;1.70;;;;;;;;;;4931783;28;20362;-62
2022/07/15 00:29:10;;;;;;;2.72;1.85;;;;;;;;;;4931599;28;20030;-61
2022/07/15 00:31:36;;;;;;;2.58;1.98;;;;;;;;;;4932198;28;20503;-62
2022/07/15 00:34:02;;;;;;;3.45;1.88;;;;;;;;;;4931633;28;20431;-62
2022/07/15 00:36:28;;;;;;;3.45;2.00;;;;;;;;;;4932435;28;20034;-61
2022/07/15 00:38:54;;;;;;;3.10;2.13;;;;;;;;;;4933499;28;20398;-63
2022/07/15 00:41:19;;;;;;;2.83;2.05;;;;;;;;;;4931673;28;20380;-61
2022/07/15 00:43:45;;;;;;;2.30;1.80;;;;;;;;;;4932314;28;20520;-61
2022/07/15 00:46:15;;;;;;;3.35;1.90;;;;;;;;;;4932085;28;20398;-61
2022/07/15 00:48:41;;;;;;;3.65;2.03;;;;;;;;;;4931764;28;20108;-62
2022/07/15 00:51:06;;;;;;;3.88;2.10;;;;;;;;;;4931199;28;20030;-61
2022/07/15 00:53:33;;;;;;;2.45;1.85;;;;;;;;;;4932286;28;20437;-61
2022/07/15 00:56:01;;;;;;;3.13;1.90;;;;;;;;;;4931060;28;20351;-61
2022/07/15 00:58:27;;;;;;;1.90;1.63;;;;;;;;;;4930581;28;20386;-60
2022/07/15 01:00:54;;;;;;;3.17;2.13;;;;;;;;;;4933524;28;20414;-61
2022/07/15 01:03:20;;;;;;;2.22;1.73;;;;;;;;;;4939977;28;20453;-61
2022/07/15 01:05:47;;;;;;;2.22;1.40;;;;;;;;;;4931246;28;20471;-60
2022/07/15 01:08:13;;;;;;;6.60;2.00;;;;;;;;;;4931124;28;20353;-61
2022/07/15 01:10:39;;;;;;;3.03;1.85;;;;;;;;;;4931370;28;20030;-61
2022/07/15 01:13:04;;;;;;;2.60;2.00;;;;;;;;;;4930891;28;20417;-65
2022/07/15 01:15:32;;;;;;;2.55;1.90;;;;;;;;;;4931963;28;20382;-61
2022/07/15 01:17:59;;;;;;;2.53;1.58;;;;;;;;;;4930751;28;20381;-61
2022/07/15 01:20:24;;;;;;;2.70;1.88;;;;;;;;;;4931794;28;20501;-61
2022/07/15 01:22:50;;;;;;;2.78;1.98;;;;;;;;;;4930751;28;20426;-61
2022/07/15 01:25:15;;;;;;;2.35;1.80;;;;;;;;;;4931388;28;20360;-62
2022/07/15 01:27:41;;;;;;;2.47;1.75;;;;;;;;;;4930700;28;20426;-60
2022/07/15 01:30:07;;;;;;;2.67;1.85;;;;;;;;;;4931738;28;20078;-61
2022/07/15 01:32:33;;;;;;;4.05;1.90;;;;;;;;;;4930971;28;20326;-61
2022/07/15 01:34:59;;;;;;;2.85;2.00;;;;;;;;;;4931716;28;20326;-61
2022/07/15 01:37:24;;;;;;;2.15;1.70;;;;;;;;;;4932095;28;20453;-62
2022/07/15 01:39:50;;;;;;;2.85;2.00;;;;;;;;;;4931869;28;20330;-61
2022/07/15 01:42:15;;;;;;;2.92;1.80;;;;;;;;;;4930478;28;20406;-62
2022/07/15 01:44:41;;;;;;;2.70;1.90;;;;;;;;;;4931683;28;20381;-62
2022/07/15 01:47:06;;;;;;;3.88;2.20;;;;;;;;;;4930715;28;20476;-61
2022/07/15 01:49:32;;;;;;;3.20;2.00;;;;;;;;;;4931609;28;20438;-61
2022/07/15 01:51:59;;;;;;;2.17;1.80;;;;;;;;;;4930123;28;20358;-63
2022/07/15 01:54:26;;;;;;;3.30;1.80;;;;;;;;;;4930075;28;20030;-61
2022/07/15 01:56:52;;;;;;;6.00;1.88;;;;;;;;;;4944463;28;20403;-62
2022/07/15 01:59:18;;;;;;;2.25;1.65;;;;;;;;;;4949436;28;20511;-62
2022/07/15 02:01:44;;;;;;;2.95;2.00;;;;;;;;;;4950642;28;20452;-61
2022/07/15 02:04:10;;;;;;;2.97;1.90;;;;;;;;;;4948068;28;20433;-62
2022/07/15 02:06:35;;;;;;;2.55;1.90;;;;;;;;;;4949728;28;20025;-61
2022/07/15 02:09:01;;;;;;;4.35;2.15;;;;;;;;;;4949219;28;20437;-61
2022/07/15 02:11:27;;;;;;;2.22;1.83;;;;;;;;;;4949790;28;20038;-62
2022/07/15 02:13:59;;;;;;;3.35;2.08;;;;;;;;;;4949652;28;20444;-61
2022/07/15 02:16:25;;;;;;;4.30;2.10;;;;;;;;;;4949634;28;20343;-61
2022/07/15 02:18:51;;;;;;;2.75;1.70;;;;;;;;;;4951104;28;20492;-61
2022/07/15 02:21:16;;;;;;;2.70;1.70;;;;;;;;;;4949300;28;20392;-61
2022/07/15 02:23:42;;;;;;;2.70;1.67;;;;;;;;;;4949275;28;20100;-62
2022/07/15 02:26:07;;;;;;;1.92;1.73;;;;;;;;;;4948127;28;20368;-62
2022/07/15 02:28:33;;;;;;;2.92;1.85;;;;;;;;;;4949410;28;20369;-60
2022/07/15 02:30:58;;;;;;;2.00;1.80;;;;;;;;;;4950017;28;20409;-61
2022/07/15 02:33:24;;;;;;;2.55;1.60;;;;;;;;;;4949493;28;20123;-61
2022/07/15 02:35:50;;;;;;;2.97;1.92;;;;;;;;;;4949913;28;20026;-61
2022/07/15 02:38:15;;;;;;;1.90;1.58;;;;;;;;;;4949919;28;20488;-61
2022/07/15 02:40:41;;;;;;;3.03;2.10;;;;;;;;;;4949706;28;20384;-61
2022/07/15 02:43:08;;;;;;;2.67;1.92;;;;;;;;;;4949458;28;20515;-63
2022/07/15 02:45:35;;;;;;;2.33;1.60;;;;;;;;;;4949296;28;20088;-60
2022/07/15 02:48:02;;;;;;;4.07;1.88;;;;;;;;;;4949940;28;20444;-61
2022/07/15 02:50:28;;;;;;;2.88;1.95;;;;;;;;;;4947858;28;20436;-61
2022/07/15 02:52:53;;;;;;;3.92;1.90;;;;;;;;;;4950100;28;20421;-61
2022/07/15 02:55:19;;;;;;;2.78;2.20;;;;;;;;;;4948856;28;20369;-61
2022/07/15 02:57:44;;;;;;;2.50;1.80;;;;;;;;;;4948920;28;20375;-61
2022/07/15 03:00:12;;;;;;;2.20;1.90;;;;;;;;;;4949369;28;20307;-61
2022/07/15 03:02:38;;;;;;;2.93;1.90;;;;;;;;;;4949255;28;20487;-62
2022/07/15 03:05:05;;;;;;;4.10;2.03;;;;;;;;;;4950358;28;20572;-64
2022/07/15 03:07:30;;;;;;;2.42;1.95;;;;;;;;;;4949818;28;20117;-61
2022/07/15 03:09:56;;;;;;;4.53;2.00;;;;;;;;;;4948593;28;20055;-61
2022/07/15 03:12:21;;;;;;;2.40;1.90;;;;;;;;;;4949926;28;20468;-61
2022/07/15 03:14:47;;;;;;;3.03;2.00;;;;;;;;;;4948778;28;20503;-62
2022/07/15 03:17:13;;;;;;;2.95;1.88;;;;;;;;;;4949567;28;20557;-61
2022/07/15 03:19:38;;;;;;;2.30;1.90;;;;;;;;;;4949058;28;20381;-61
2022/07/15 03:22:04;;;;;;;2.70;1.95;;;;;;;;;;4952270;28;20369;-61
2022/07/15 03:24:29;;;;;;;5.07;2.22;;;;;;;;;;4953264;28;20444;-62
2022/07/15 03:26:55;;;;;;;2.75;2.03;;;;;;;;;;4952332;28;20449;-61
2022/07/15 03:29:20;;;;;;;2.80;1.98;;;;;;;;;;4952930;28;20357;-61
2022/07/15 03:31:46;;;;;;;1.55;1.38;;;;;;;;;;4953282;28;20026;-61
2022/07/15 03:34:11;;;;;;;2.70;1.92;;;;;;;;;;4952573;28;20030;-61
2022/07/15 03:36:38;;;;;;;2.40;1.90;;;;;;;;;;4952062;28;20433;-60
2022/07/15 03:39:07;;;;;;;3.83;2.40;;;;;;;;;;4952454;28;20421;-61
2022/07/15 03:41:33;;;;;;;4.35;1.75;;;;;;;;;;4952464;28;20415;-62
2022/07/15 03:44:00;;;;;;;2.03;1.83;;;;;;;;;;4934472;28;20410;-61
2022/07/15 03:46:26;;;;;;;2.22;1.70;;;;;;;;;;4952039;28;20459;-60
2022/07/15 03:48:52;;;;;;;2.45;1.98;;;;;;;;;;4951773;28;20344;-61
2022/07/15 03:51:17;;;;;;;2.15;1.80;;;;;;;;;;4951943;28;20341;-60
2022/07/15 03:53:43;;;;;;;2.53;1.90;;;;;;;;;;4951864;28;20128;-61
2022/07/15 03:56:09;;;;;;;2.30;1.75;;;;;;;;;;4951370;28;20479;-62
2022/07/15 03:58:34;;;;;;;3.38;1.92;;;;;;;;;;4953098;28;20373;-62
2022/07/15 04:00:59;;;;;;;4.00;1.90;;;;;;;;;;4952100;28;20496;-61
2022/07/15 04:03:25;;;;;;;2.38;1.90;;;;;;;;;;4951593;28;20360;-61
2022/07/15 04:05:50;;;;;;;3.70;1.73;;;;;;;;;;4952293;28;20321;-61
2022/07/15 04:08:16;;;;;;;2.45;1.90;;;;;;;;;;4934224;28;20539;-61
2022/07/15 04:10:41;;;;;;;2.28;1.98;;;;;;;;;;4951940;28;20322;-60
2022/07/15 04:13:07;;;;;;;3.72;2.25;;;;;;;;;;4951685;28;20333;-61
2022/07/15 04:15:32;;;;;;;3.60;1.90;;;;;;;;;;4951200;28;20034;-60
2022/07/15 04:17:58;;;;;;;2.85;1.90;;;;;;;;;;4951581;28;20392;-61
2022/07/15 04:20:26;;;;;;;3.83;2.30;;;;;;;;;;4952391;28;20373;-62
2022/07/15 04:22:51;;;;;;;2.40;1.70;;;;;;;;;;4951111;28;20084;-61
2022/07/15 04:25:19;;;;;;;3.58;2.03;;;;;;;;;;4951641;28;20053;-61
2022/07/15 04:27:46;;;;;;;2.25;1.85;;;;;;;;;;4951312;28;20548;-61
2022/07/15 04:30:12;;;;;;;3.88;1.85;;;;;;;;;;4950998;28;20048;-62
2022/07/15 04:32:38;;;;;;;2.95;1.92;;;;;;;;;;4951654;28;20361;-62
2022/07/15 04:35:04;;;;;;;3.15;1.88;;;;;;;;;;4951181;28;20356;-62
2022/07/15 04:37:30;;;;;;;2.10;1.65;;;;;;;;;;4951279;28;20038;-61
2022/07/15 04:39:55;;;;;;;2.78;1.88;;;;;;;;;;4952127;28;20429;-61
2022/07/15 04:42:22;;;;;;;3.63;1.70;;;;;;;;;;4950876;28;20452;-61
2022/07/15 04:44:47;;;;;;;2.70;2.20;;;;;;;;;;4950819;28;20436;-60
2022/07/15 04:47:13;;;;;;;2.45;1.70;;;;;;;;;;4950368;28;20433;-61
2022/07/15 04:52:24;;;;;;;3.30;2.10;;;;;;;;;;4951001;28;20365;-62
2022/07/15 04:54:53;;;;;;;1.95;1.70;;;;;;;;;;4950584;28;20391;-62
2022/07/15 04:57:18;;;;;;;3.10;2.20;;;;;;;;;;4950336;28;20449;-61
2022/07/15 04:59:44;;;;;;;3.35;1.83;;;;;;;;;;4950558;28;20336;-62
2022/07/15 05:02:09;;;;;;;2.67;2.15;;;;;;;;;;4950656;28;20441;-60
2022/07/15 05:04:35;;;;;;;6.90;2.78;;;;;;;;;;4950631;28;20460;-60
2022/07/15 05:07:01;;;;;;;3.20;1.80;;;;;;;;;;4950586;28;20056;-61
2022/07/15 05:09:26;;;;;;;3.13;1.58;;;;;;;;;;4950798;28;20499;-61
2022/07/15 05:11:52;;;;;;;3.85;1.70;;;;;;;;;;4950631;28;20171;-61
2022/07/15 05:14:17;;;;;;;3.97;2.33;;;;;;;;;;4950216;28;20595;-61
2022/07/15 05:16:43;;;;;;;2.83;1.85;;;;;;;;;;4950287;28;20418;-60
2022/07/15 05:19:08;;;;;;;2.13;1.63;;;;;;;;;;4950825;28;20325;-61
2022/07/15 05:21:34;;;;;;;4.25;2.20;;;;;;;;;;4950435;28;20479;-61
2022/07/15 05:23:59;;;;;;;2.53;1.70;;;;;;;;;;4950713;28;20444;-60
2022/07/15 05:26:24;;;;;;;6.97;1.52;;;;;;;;;;4950153;28;20444;-61
2022/07/15 05:28:50;;;;;;;2.85;1.88;;;;;;;;;;4950984;28;20349;-60
2022/07/15 05:31:15;;;;;;;3.20;1.85;;;;;;;;;;4949924;28;20441;-61
2022/07/15 05:33:41;;;;;;;2.45;2.00;;;;;;;;;;4950375;28;20333;-61
2022/07/15 05:36:12;;;;;;;2.78;1.65;;;;;;;;;;4950079;28;20328;-61
2022/07/15 05:38:37;;;;;;;3.00;1.88;;;;;;;;;;4949970;28;20511;-61
2022/07/15 05:41:03;;;;;;;3.50;1.70;;;;;;;;;;4949956;28;20433;-62
2022/07/15 05:43:29;;;;;;;2.90;1.98;;;;;;;;;;4949359;28;20452;-61
2022/07/15 05:45:54;;;;;;;6.35;1.63;;;;;;;;;;4949992;28;20480;-63
2022/07/15 05:48:20;;;;;;;2.55;1.70;;;;;;;;;;4950012;28;20512;-61
2022/07/15 05:50:45;;;;;;;3.05;1.52;;;;;;;;;;4951134;28;20383;-61
2022/07/15 05:53:11;;;;;;;4.57;1.83;;;;;;;;;;4950532;28;20365;-61
2022/07/15 05:55:36;;;;;;;3.50;2.10;;;;;;;;;;4949994;28;20485;-60
2022/07/15 05:58:06;;;;;;;3.17;1.60;;;;;;;;;;4949625;28;20380;-63
2022/07/15 06:00:31;;;;;;;3.20;2.00;;;;;;;;;;4949982;28;20401;-61
2022/07/15 06:02:56;;;;;;;2.67;1.80;;;;;;;;;;4950007;28;20160;-62
2022/07/15 06:05:22;;;;;;;5.13;1.90;;;;;;;;;;4949585;28;20467;-61
2022/07/15 06:07:48;;;;;;;5.93;1.85;;;;;;;;;;4948998;28;20333;-61
2022/07/15 06:10:13;;;;;;;4.70;1.92;;;;;;;;;;4949852;28;20447;-60
2022/07/15 06:12:38;;;;;;;3.08;1.50;;;;;;;;;;4949212;28;20448;-60
2022/07/15 06:15:05;;;;;;;2.78;1.90;;;;;;;;;;4949617;28;20368;-62
2022/07/15 06:17:31;;;;;;;7.13;1.50;;;;;;;;;;4949641;28;20512;-61
2022/07/15 06:19:56;;;;;;;1.73;1.42;;;;;;;;;;4949225;28;20364;-61
2022/07/15 06:22:22;;;;;;;1.50;1.25;;;;;;;;;;4949047;28;20353;-62
2022/07/15 06:24:47;;;;;;;2.72;1.92;;;;;;;;;;4950632;28;20386;-61
2022/07/15 06:27:13;;;;;;;4.55;2.20;;;;;;;;;;4951438;28;20334;-60
2022/07/15 06:29:38;;;;;;;2.75;1.52;;;;;;;;;;4949928;28;20504;-61
2022/07/15 06:32:04;;;;;;;2.53;1.52;;;;;;;;;;4949287;28;20491;-61
2022/07/15 06:34:30;;;;;;;2.45;1.60;;;;;;;;;;4949519;28;20332;-60
2022/07/15 06:36:55;;;;;;;2.28;1.52;;;;;;;;;;4949793;28;20388;-61
2022/07/15 06:39:20;;;;;;;2.50;1.30;;;;;;;;;;4949800;28;20108;-61
2022/07/15 06:41:48;;;;;;;2.15;1.30;;;;;;;;;;4949553;28;20030;-61
2022/07/15 06:44:13;;;;;;;2.05;1.65;;;;;;;;;;4950408;28;20072;-61
2022/07/15 06:46:39;;;;;;;2.33;1.48;;;;;;;;;;4949132;28;20033;-61
2022/07/15 06:49:04;;;;;;;2.80;1.83;;;;;;;;;;4949605;28;20448;-60
2022/07/15 06:51:29;;;;;;;2.53;1.33;;;;;;;;;;4949007;28;20145;-61
2022/07/15 06:53:55;;;;;;;2.03;1.25;;;;;;;;;;4949319;28;20041;-61
2022/07/15 06:56:20;;;;;;;2.47;1.30;;;;;;;;;;4951199;28;20409;-60
2022/07/15 06:58:46;;;;;;;1.88;1.33;;;;;;;;;;4953070;28;20445;-62
2022/07/15 07:01:11;;;;;;;2.17;1.45;;;;;;;;;;4953346;28;20432;-61
2022/07/15 07:03:38;;;;;;;1.65;1.33;;;;;;;;;;4952875;28;20497;-61
2022/07/15 07:06:05;;;;;;;1.80;1.30;;;;;;;;;;4952746;28;20056;-60
2022/07/15 07:08:31;;;;;;;4.60;1.55;;;;;;;;;;4952461;28;20476;-60
2022/07/15 07:10:56;;;;;;;3.40;1.35;;;;;;;;;;4952277;28;20504;-61
2022/07/15 07:13:23;;;;;;;1.55;1.30;;;;;;;;;;4952405;28;20338;-60
2022/07/15 07:15:48;;;;;;;2.13;1.33;;;;;;;;;;4953315;28;20025;-60
2022/07/15 07:18:13;;;;;;;2.30;1.30;;;;;;;;;;4952124;28;20417;-61
2022/07/15 07:20:43;;;;;;;2.13;1.42;;;;;;;;;;4953368;28;20437;-60
2022/07/15 07:23:08;;;;;;;2.42;1.83;;;;;;;;;;4953509;28;20448;-61
2022/07/15 07:25:34;;;;;;;2.45;1.20;;;;;;;;;;4952238;28;20113;-62
2022/07/15 07:28:03;;;;;;;2.38;1.55;;;;;;;;;;4952379;28;20321;-61
2022/07/15 07:30:29;;;;;;;2.92;1.58;;;;;;;;;;4953519;28;20440;-61
2022/07/15 07:32:54;;;;;;;4.57;1.30;;;;;;;;;;4952305;28;20495;-61
2022/07/15 07:35:20;;;;;;;3.65;1.77;;;;;;;;;;4952631;28;20471;-60
2022/07/15 07:37:45;;;;;;;3.67;1.42;;;;;;;;;;4952077;28;20030;-61
2022/07/15 07:40:11;;;;;;;2.63;1.17;;;;;;;;;;4952464;28;20328;-61
2022/07/15 07:42:38;;;;;;;2.50;1.20;;;;;;;;;;4952649;28;20401;-61
2022/07/15 07:45:04;;;;;;;2.45;1.38;;;;;;;;;;4952124;28;20310;-60
2022/07/15 07:47:29;;;;;;;1.38;1.08;;;;;;;;;;4952152;28;20377;-61
2022/07/15 07:49:55;;;;;;;1.88;1.30;;;;;;;;;;4951183;28;20048;-60
2022/07/15 07:52:20;;;;;;;1.40;1.25;;;;;;;;;;4952018;28;20429;-60
2022/07/15 07:54:46;;;;;;;2.22;1.20;;;;;;;;;;4952001;28;20445;-62
2022/07/15 07:57:11;;;;;;;2.28;1.10;;;;;;;;;;4951377;28;20456;-60
2022/07/15 07:59:38;;;;;;;2.05;1.13;;;;;;;;;;4952323;28;20468;-60
2022/07/15 08:02:06;;;;;;;1.77;1.10;;;;;;;;;;4944080;28;20444;-60
2022/07/15 08:04:32;;;;;;;1.88;1.30;;;;;;;;;;4951582;28;20432;-60
2022/07/15 08:06:57;;;;;;;2.30;1.42;;;;;;;;;;4951093;28;20453;-64
2022/07/15 08:09:23;;;;;;;3.70;1.33;;;;;;;;;;4952049;28;20360;-61
2022/07/15 08:11:48;;;;;;;2.53;1.30;;;;;;;;;;4951675;28;20322;-61
2022/07/15 08:14:14;;;;;;;2.08;1.17;;;;;;;;;;4951310;28;20331;-61
2022/07/15 08:16:42;;;;;;;6.03;1.42;;;;;;;;;;4951290;28;20109;-60
2022/07/15 08:19:08;;;;;;;2.43;1.27;;;;;;;;;;4951574;28;20030;-61
2022/07/15 08:21:33;;;;;;;3.45;1.05;;;;;;;;;;4951787;28;20322;-60
2022/07/15 08:23:59;;;;;;;2.17;1.10;;;;;;;;;;4933603;28;20395;-61
2022/07/15 08:26:24;;;;;;;3.47;1.23;;;;;;;;;;4951522;28;20044;-61
2022/07/15 08:28:51;;;;;;;1.58;0.80;;;;;;;;;;4952181;28;20397;-62
2022/07/15 08:31:16;;;;;;;2.67;1.25;;;;;;;;;;4951050;28;20326;-61
2022/07/15 08:33:42;;;;;;;2.33;1.25;;;;;;;;;;4951326;28;20607;-60
2022/07/15 08:36:08;;;;;;;3.15;1.23;;;;;;;;;;4951418;28;20379;-61
2022/07/15 08:38:33;;;;;;;2.55;1.20;;;;;;;;;;4951006;28;20448;-61
2022/07/15 08:40:59;;;;;;;2.97;1.17;;;;;;;;;;4951198;28;20412;-61
2022/07/15 08:43:24;;;;;;;0.98;0.88;;;;;;;;;;4952692;28;20338;-60
2022/07/15 08:45:50;;;;;;;2.83;1.00;;;;;;;;;;4951326;28;20060;-61
2022/07/15 08:48:16;;;;;;;1.63;1.15;;;;;;;;;;4950618;28;20527;-61
2022/07/15 08:50:43;;;;;;;2.88;1.08;;;;;;;;;;4950724;28;20353;-60
2022/07/15 08:53:09;;;;;;;1.13;1.00;;;;;;;;;;4950999;28;20099;-61
2022/07/15 08:55:34;;;;;;;1.38;0.95;;;;;;;;;;4951324;28;20432;-60
2022/07/15 08:58:00;;;;;;;1.80;1.00;;;;;;;;;;4950936;28;20085;-60
2022/07/15 09:00:29;;;;;;;2.45;0.90;;;;;;;;;;4933190;28;20388;-60
2022/07/15 09:02:59;;;;;;;1.38;0.90;;;;;;;;;;4950411;28;20421;-61
2022/07/15 09:05:30;;;;;;;1.42;0.88;;;;;;;;;;4950400;28;20346;-61
2022/07/15 09:08:04;;;;;;;1.27;0.88;;;;;;;;;;4950624;28;20298;-61
2022/07/15 09:10:50;;;;;;;1.48;0.77;;;;;;;;;;4950603;28;20433;-61
2022/07/15 09:13:26;;;;;;;1.63;1.10;;;;;;;;;;4950883;28;20468;-61
2022/07/15 09:15:54;;;;;;;1.40;0.95;;;;;;;;;;4950440;28;20502;-61
2022/07/15 09:18:24;;;;;;;0.98;0.75;;;;;;;;;;4949333;28;20342;-61
2022/07/15 09:20:49;;;;;;;1.30;0.80;;;;;;;;;;4950355;28;20026;-62
2022/07/15 09:23:20;;;;;;;1.65;0.90;;;;;;;;;;4950426;28;20356;-61
2022/07/15 09:25:49;;;;;;;1.95;1.33;;;;;;;;;;4950119;28;20311;-60
2022/07/15 09:28:15;;;;;;;2.45;1.08;;;;;;;;;;4951209;28;20344;-60
2022/07/15 09:36:21;;;;;;;1.63;0.93;;;;;;;;;;4949967;28;20471;-61
2022/07/15 09:38:58;;;;;;;8.45;0.80;;;;;;;;;;4950288;28;20030;-62
2022/07/15 09:41:26;;;;;;;1.38;0.70;;;;;;;;;;4949505;28;20441;-60
2022/07/15 09:43:53;;;;;;;1.48;0.82;;;;;;;;;;4950174;28;20314;-61
2022/07/15 09:46:20;;;;;;;0.73;0.57;;;;;;;;;;4950077;28;20396;-61
2022/07/15 09:48:47;;;;;;;2.05;0.90;;;;;;;;;;4950066;28;20443;-61
2022/07/15 09:51:13;;;;;;;1.23;1.05;;;;;;;;;;4950634;28;20392;-61
2022/07/15 09:53:40;;;;;;;1.75;0.80;;;;;;;;;;4949648;28;20034;-61
2022/07/15 09:56:08;;;;;;;0.88;0.70;;;;;;;;;;4949154;28;20341;-65
2022/07/15 09:58:38;;;;;;;1.42;0.90;;;;;;;;;;4949476;28;20352;-61
2022/07/15 10:01:03;;;;;;;1.40;0.90;;;;;;;;;;4925074;28;20376;-60
2022/07/15 10:03:30;;;;;;;1.55;0.70;;;;;;;;;;4950049;28;20353;-61
2022/07/15 10:05:56;;;;;;;2.80;0.85;;;;;;;;;;4949455;28;20349;-61
2022/07/15 10:08:22;;;;;;;1.85;0.60;;;;;;;;;;4932081;28;20038;-61
2022/07/15 10:10:50;;;;;;;1.15;0.80;;;;;;;;;;4931917;28;20452;-61
2022/07/15 10:13:52;;;;;;;0.97;0.70;;;;;;;;;;4949651;28;20376;-62
2022/07/15 10:16:36;;;;;;;1.10;0.70;;;;;;;;;;4911023;28;20471;-61
2022/07/15 10:19:27;;;;;;;3.53;0.88;;;;;;;;;;4951274;28;20432;-63
2022/07/15 10:21:55;;;;;;;1.35;0.70;;;;;;;;;;4932074;28;20437;-61
2022/07/15 10:24:26;;;;;;;1.40;0.70;;;;;;;;;;4949266;28;20341;-61
2022/07/15 10:27:01;;;;;;;2.05;0.85;;;;;;;;;;4931617;28;20412;-62
2022/07/15 10:29:29;;;;;;;0.70;0.70;;;;;;;;;;4950638;28;20095;-61
2022/07/15 10:31:59;;;;;;;1.42;0.85;;;;;;;;;;4935209;28;20453;-61
2022/07/15 10:34:38;;;;;;;3.17;0.98;;;;;;;;;;4953469;28;20336;-61
2022/07/15 10:37:11;;;;;;;0.68;0.50;;;;;;;;;;4945831;28;20065;-61
2022/07/15 10:39:46;;;;;;;1.75;0.93;;;;;;;;;;4953598;28;20433;-61
2022/07/15 10:42:11;;;;;;;1.63;0.90;;;;;;;;;;4953215;28;20504;-62
2022/07/15 10:45:01;;;;;;;1.13;0.70;;;;;;;;;;4954062;28;20444;-61
2022/07/15 10:47:26;;;;;;;1.15;0.60;;;;;;;;;;4948196;28;20433;-61
2022/07/15 10:49:52;;;;;;;1.00;0.68;;;;;;;;;;4953226;28;20324;-62
2022/07/15 10:52:23;;;;;;;1.02;0.60;;;;;;;;;;4935226;28;20403;-61
2022/07/15 10:54:54;;;;;;;1.48;0.93;;;;;;;;;;4953104;28;20388;-62
2022/07/15 10:57:20;;;;;;;1.35;0.73;;;;;;;;;;4953697;28;20516;-61
2022/07/15 10:59:51;;;;;;;1.30;0.77;;;;;;;;;;4952533;28;20338;-62
2022/07/15 11:02:19;;;;;;;1.20;0.55;;;;;;;;;;4952674;28;20034;-62
2022/07/15 11:04:45;;;;;;;1.50;0.50;;;;;;;;;;4953113;28;20021;-62
2022/07/15 11:07:14;;;;;;;0.98;0.70;;;;;;;;;;4953595;28;20422;-62
2022/07/15 11:09:53;;;;;;;0.95;0.40;;;;;;;;;;4952744;28;20033;-61
2022/07/15 11:12:50;;;;;;;2.22;0.70;;;;;;;;;;4935333;28;20448;-62
2022/07/15 11:15:17;;;;;;;2.88;1.02;;;;;;;;;;4953388;28;20387;-62
2022/07/15 11:17:48;;;;;;;0.57;0.50;;;;;;;;;;4951055;28;20387;-61
2022/07/15 11:20:23;;;;;;;1.65;0.43;;;;;;;;;;4935624;28;20387;-61
2022/07/15 11:22:50;;;;;;;0.40;0.40;;;;;;;;;;4951038;28;20460;-62
2022/07/15 11:25:40;;;;;;;1.75;0.60;;;;;;;;;;4934959;28;20443;-63
2022/07/15 11:28:07;;;;;;;1.00;0.45;;;;;;;;;;4942486;28;20065;-61
2022/07/15 11:30:34;;;;;;;1.40;0.63;;;;;;;;;;4953085;28;20034;-62
2022/07/15 11:33:02;;;;;;;1.02;0.40;;;;;;;;;;4952213;28;20447;-62
2022/07/15 11:35:29;;;;;;;1.37;0.60;;;;;;;;;;4952261;28;20487;-62
2022/07/15 11:38:02;;;;;;;0.35;0.32;;;;;;;;;;4934903;28;20345;-61
2022/07/15 11:46:05;;;;;;;0.75;0.75;;;;;;;;;;4953051;28;20353;-62
2022/07/15 11:48:35;;;;;;;2.63;0.50;;;;;;;;;;4952919;28;20370;-61
2022/07/15 11:51:01;;;;;;;1.83;0.40;;;;;;;;;;4952764;28;20388;-62
2022/07/15 11:53:27;;;;;;;0.70;0.38;;;;;;;;;;4952141;28;20364;-61
2022/07/15 11:55:57;;;;;;;1.15;0.40;;;;;;;;;;4953030;28;20053;-62
2022/07/15 11:58:34;;;;;;;1.98;0.50;;;;;;;;;;4951508;28;20531;-62
2022/07/15 12:01:06;;;;;;;2.55;0.50;;;;;;;;;;4953375;28;20583;-62
2022/07/15 12:03:33;;;;;;;1.08;0.60;;;;;;;;;;4951235;28;20384;-62
2022/07/15 12:06:03;;;;;;;0.60;0.35;;;;;;;;;;4951516;28;20465;-62
2022/07/15 12:08:46;;;;;;;0.40;0.40;;;;;;;;;;4951737;28;20384;-62
2022/07/15 12:11:21;;;;;;;4.65;0.40;;;;;;;;;;4952468;28;20391;-62
2022/07/15 12:14:01;;;;;;;2.63;0.60;;;;;;;;;;4952014;28;20345;-62
2022/07/15 12:16:34;;;;;;;1.85;0.63;;;;;;;;;;4951345;28;20421;-62
2022/07/15 12:19:03;;;;;;;1.88;0.60;;;;;;;;;;4953491;28;20549;-62
2022/07/15 12:21:29;;;;;;;0.80;0.50;;;;;;;;;;4951490;28;20571;-62
2022/07/15 12:24:06;;;;;;;1.08;0.40;;;;;;;;;;4950748;28;20583;-62
2022/07/15 12:26:33;;;;;;;0.60;0.40;;;;;;;;;;4951571;28;20353;-62
2022/07/15 12:29:00;;;;;;;0.75;0.40;;;;;;;;;;4951088;28;20385;-62
2022/07/15 12:31:31;;;;;;;1.88;0.57;;;;;;;;;;4951037;28;20030;-61
2022/07/15 12:33:57;;;;;;;0.30;0.30;;;;;;;;;;4951052;28;20413;-63
2022/07/15 12:36:25;;;;;;;0.73;0.30;;;;;;;;;;4950961;28;20413;-63
2022/07/15 12:39:12;;;;;;;0.60;0.30;;;;;;;;;;4951276;28;20571;-62
2022/07/15 12:41:39;;;;;;;0.55;0.20;;;;;;;;;;4950683;28;20344;-62
2022/07/15 12:44:05;;;;;;;1.83;0.20;;;;;;;;;;4952750;28;20049;-62
2022/07/15 12:46:57;;;;;;;0.57;0.25;;;;;;;;;;4950614;28;20511;-61
2022/07/15 12:49:41;;;;;;;0.38;0.20;;;;;;;;;;4950841;28;20567;-62
2022/07/15 12:52:19;;;;;;;0.95;0.60;;;;;;;;;;4950787;28;20368;-62
2022/07/15 12:54:45;;;;;;;1.77;0.20;;;;;;;;;;4950816;28;20038;-62
2022/07/15 12:57:20;;;;;;;2.15;0.60;;;;;;;;;;4950739;28;20348;-62
2022/07/15 13:00:13;;;;;;;0.17;0.10;;;;;;;;;;4950887;28;20388;-62
2022/07/15 13:03:16;;;;;;;0.75;0.40;;;;;;;;;;4942338;28;20479;-63
2022/07/15 13:05:49;;;;;;;2.03;0.75;;;;;;;;;;4950778;28;20038;-62
2022/07/15 13:08:17;;;;;;;1.85;0.30;;;;;;;;;;4951947;28;20337;-62
2022/07/15 13:10:45;;;;;;;1.80;0.70;;;;;;;;;;4950943;28;20060;-62
2022/07/15 13:13:12;;;;;;;0.38;0.38;;;;;;;;;;4950794;28;20342;-62
2022/07/15 13:15:38;;;;;;;1.38;0.38;;;;;;;;;;4950337;28;20112;-62
2022/07/15 13:18:04;;;;;;;0.60;0.20;;;;;;;;;;4950213;28;20463;-63
2022/07/15 13:20:29;;;;;;;2.50;0.35;;;;;;;;;;4951068;28;20468;-62
2022/07/15 13:22:56;;;;;;;0.43;0.40;;;;;;;;;;4950031;28;20095;-63
2022/07/15 13:25:22;;;;;;;0.82;0.40;;;;;;;;;;4950626;28;20600;-62
2022/07/15 13:27:47;;;;;;;2.13;0.50;;;;;;;;;;4951337;28;20349;-62
2022/07/15 13:30:14;;;;;;;0.57;0.30;;;;;;;;;;4950224;28;20360;-62
2022/07/15 13:32:40;;;;;;;0.30;0.30;;;;;;;;;;4950019;28;20037;-62
2022/07/15 13:35:06;;;;;;;1.92;0.60;;;;;;;;;;4951696;28;20483;-62
2022/07/15 13:37:32;;;;;;;1.17;0.68;;;;;;;;;;4949736;28;20541;-61
2022/07/15 13:39:57;;;;;;;1.08;0.40;;;;;;;;;;4950253;28;20245;-62
2022/07/15 13:42:24;;;;;;;2.38;0.50;;;;;;;;;;4950759;28;20069;-62
2022/07/15 13:44:51;;;;;;;0.65;0.40;;;;;;;;;;4950096;28;20307;-62
2022/07/15 13:47:16;;;;;;;1.35;0.77;;;;;;;;;;4950105;28;20405;-62
2022/07/15 13:52:26;;;;;;;1.27;0.40;;;;;;;;;;4950704;28;20425;-62
2022/07/15 13:54:51;;;;;;;1.27;0.38;;;;;;;;;;4950153;28;20336;-62
2022/07/15 13:57:17;;;;;;;0.55;0.50;;;;;;;;;;4950326;28;20369;-62
2022/07/15 13:59:42;;;;;;;1.50;0.45;;;;;;;;;;4950315;28;20333;-63
2022/07/15 14:02:08;;;;;;;1.33;0.57;;;;;;;;;;4949719;28;20081;-61
2022/07/15 14:04:35;;;;;;;0.45;0.28;;;;;;;;;;4676889;28;10001600;-64
2022/07/15 14:07:01;;;;;;;0.77;0.57;;;;;;;;;;4950884;28;20740;-62
2022/07/15 14:09:26;;;;;;;4.18;0.47;;;;;;;;;;4950180;28;20410;-62
2022/07/15 14:11:52;;;;;;;0.65;0.50;;;;;;;;;;4950073;28;20405;-62
2022/07/15 14:14:17;;;;;;;1.40;0.93;;;;;;;;;;4949187;28;20434;-63
2022/07/15 14:16:43;;;;;;;0.55;0.40;;;;;;;;;;4950398;28;20093;-61
2022/07/15 14:19:08;;;;;;;1.58;0.50;;;;;;;;;;4949038;28;20034;-62
2022/07/15 14:21:34;;;;;;;0.55;0.30;;;;;;;;;;4950734;28;20022;-62
2022/07/15 14:23:59;;;;;;;0.68;0.55;;;;;;;;;;4949566;28;20437;-61
2022/07/15 14:26:25;;;;;;;0.30;0.30;;;;;;;;;;4949713;28;20029;-62
2022/07/15 14:28:50;;;;;;;2.28;0.30;;;;;;;;;;4950345;28;20100;-62
2022/07/15 14:31:17;;;;;;;1.75;0.52;;;;;;;;;;4949195;28;20451;-61
2022/07/15 14:33:42;;;;;;;0.70;0.40;;;;;;;;;;4949165;28;20380;-62
2022/07/15 14:36:09;;;;;;;0.60;0.50;;;;;;;;;;4949458;28;20330;-62
2022/07/15 14:38:36;;;;;;;0.85;0.50;;;;;;;;;;4949483;28;20511;-61
2022/07/15 14:41:01;;;;;;;1.10;0.82;;;;;;;;;;4949766;28;20096;-62
2022/07/15 14:43:27;;;;;;;2.83;0.93;;;;;;;;;;4931961;28;20440;-62
2022/07/15 14:45:52;;;;;;;0.57;0.50;;;;;;;;;;4949901;28;20468;-62
2022/07/15 14:48:18;;;;;;;2.25;0.95;;;;;;;;;;4950135;28;20417;-62
2022/07/15 14:50:43;;;;;;;1.48;0.70;;;;;;;;;;4949264;28;20350;-62
2022/07/15 14:53:09;;;;;;;1.85;0.65;;;;;;;;;;4949400;28;20061;-62
2022/07/15 14:55:34;;;;;;;2.30;1.42;;;;;;;;;;4950724;28;20478;-61
2022/07/15 14:58:00;;;;;;;1.80;0.90;;;;;;;;;;4949118;28;20492;-61
2022/07/15 15:00:25;;;;;;;2.95;1.10;;;;;;;;;;4949306;28;20483;-61
2022/07/15 15:02:50;;;;;;;1.52;0.90;;;;;;;;;;4949822;28;20095;-62